N585RS -KAVX

Flight info

Callsign N585RS
Flight time N/A
Altitude VFR
Route VFR +FF
Aircraft BE58/L-DOV/C

Departure

Time N/A
Airport -

Arrival

Time 2026-05-05 01:39
Airport Catalina Airport (KAVX)
Time Latitude Longitude Altitude Speed Heading
2026-05-05 01:19 33.84231 -117.62510 11619 ft 201 kts 237°
2026-05-05 01:19 33.83471 -117.63901 11255 ft 195 kts 237°
2026-05-05 01:20 33.82729 -117.65253 10890 ft 193 kts 238°
2026-05-05 01:20 33.81996 -117.66593 10523 ft 190 kts 238°
2026-05-05 01:20 33.81270 -117.67920 10161 ft 190 kts 238°
2026-05-05 01:20 33.80546 -117.69238 9787 ft 188 kts 238°
2026-05-05 01:21 33.79825 -117.70554 9384 ft 188 kts 238°
2026-05-05 01:21 33.79108 -117.71862 8993 ft 187 kts 238°
2026-05-05 01:21 33.78399 -117.73153 8605 ft 181 kts 239°
2026-05-05 01:21 33.77754 -117.74325 8417 ft 162 kts 238°
2026-05-05 01:22 33.77139 -117.75446 8151 ft 160 kts 238°
2026-05-05 01:22 33.76525 -117.76567 7874 ft 157 kts 239°
2026-05-05 01:22 33.75935 -117.77640 7625 ft 155 kts 239°
2026-05-05 01:22 33.75342 -117.78719 7381 ft 156 kts 239°
2026-05-05 01:23 33.74726 -117.79841 7132 ft 161 kts 239°
2026-05-05 01:23 33.74114 -117.80954 6889 ft 165 kts 239°
2026-05-05 01:23 33.73462 -117.82141 6661 ft 173 kts 239°
2026-05-05 01:23 33.72796 -117.83352 6553 ft 171 kts 239°
2026-05-05 01:24 33.72149 -117.84524 6554 ft 169 kts 238°
2026-05-05 01:24 33.71483 -117.85736 6559 ft 175 kts 238°
2026-05-05 01:24 33.70805 -117.86968 6553 ft 178 kts 238°
2026-05-05 01:24 33.70124 -117.88203 6552 ft 181 kts 239°
2026-05-05 01:25 33.69426 -117.89473 6554 ft 183 kts 238°
2026-05-05 01:25 33.68723 -117.90747 6550 ft 182 kts 238°
2026-05-05 01:25 33.68023 -117.92015 6554 ft 182 kts 238°
2026-05-05 01:25 33.67312 -117.93305 6319 ft 186 kts 239°
2026-05-05 01:26 33.66595 -117.94605 6056 ft 187 kts 238°
2026-05-05 01:26 33.65876 -117.95906 5805 ft 187 kts 238°
2026-05-05 01:26 33.65159 -117.97204 5551 ft 187 kts 238°
2026-05-05 01:26 33.64441 -117.98504 5299 ft 186 kts 238°
2026-05-05 01:27 33.63726 -117.99798 5047 ft 186 kts 238°
2026-05-05 01:27 33.63012 -118.01090 4792 ft 185 kts 238°
2026-05-05 01:27 33.62300 -118.02375 4554 ft 183 kts 238°
2026-05-05 01:27 33.61627 -118.03591 4540 ft 173 kts 238°
2026-05-05 01:28 33.60969 -118.04778 4530 ft 168 kts 238°
2026-05-05 01:28 33.60329 -118.05936 4535 ft 165 kts 238°
2026-05-05 01:28 33.59703 -118.07066 4526 ft 158 kts 238°
2026-05-05 01:28 33.59093 -118.08167 4528 ft 160 kts 238°
2026-05-05 01:29 33.58466 -118.09301 4476 ft 169 kts 238°
2026-05-05 01:29 33.57789 -118.10525 4211 ft 181 kts 238°
2026-05-05 01:29 33.57093 -118.11779 3966 ft 181 kts 238°
2026-05-05 01:29 33.56397 -118.13032 3722 ft 180 kts 237°
2026-05-05 01:30 33.55714 -118.14263 3476 ft 179 kts 237°
2026-05-05 01:30 33.55248 -118.15102 3310 ft 179 kts 238°
2026-05-05 01:30 33.54335 -118.16748 2997 ft 178 kts 237°
2026-05-05 01:30 33.53654 -118.17974 2744 ft 173 kts 237°
2026-05-05 01:31 33.53013 -118.19126 2541 ft 156 kts 238°
2026-05-05 01:31 33.52624 -118.19824 2537 ft 149 kts 237°
2026-05-05 01:31 33.52038 -118.20879 2535 ft 153 kts 238°
2026-05-05 01:31 33.51435 -118.21966 2559 ft 160 kts 237°
2026-05-05 01:32 33.50808 -118.23092 2711 ft 162 kts 237°
2026-05-05 01:32 33.50178 -118.24224 2969 ft 163 kts 237°
2026-05-05 01:32 33.49560 -118.25335 3224 ft 162 kts 238°
2026-05-05 01:32 33.48932 -118.26465 3482 ft 161 kts 237°
2026-05-05 01:33 33.48310 -118.27580 3726 ft 163 kts 238°
2026-05-05 01:33 33.47678 -118.28714 3889 ft 163 kts 236°
2026-05-05 01:33 33.47054 -118.29833 4235 ft 160 kts 238°
2026-05-05 01:33 33.46440 -118.30935 4486 ft 158 kts 238°
2026-05-05 01:34 33.45814 -118.32061 4540 ft 169 kts 238°
2026-05-05 01:34 33.45135 -118.33280 4403 ft 181 kts 238°
2026-05-05 01:34 33.44436 -118.34523 4185 ft 175 kts 238°
2026-05-05 01:34 33.43793 -118.35682 3897 ft 161 kts 239°
2026-05-05 01:35 33.43204 -118.36788 3661 ft 156 kts 237°
2026-05-05 01:35 33.42572 -118.37847 3365 ft 156 kts 235°
2026-05-05 01:35 33.41875 -118.38896 2743 ft 164 kts 231°
2026-05-05 01:35 33.41242 -118.39972 2075 ft 149 kts 249°
2026-05-05 01:36 33.40892 -118.40960 1488 ft 116 kts 252°
2026-05-05 01:36 33.40742 -118.41862 1574 ft 116 kts 252°
2026-05-05 01:36 33.40349 -118.42728 1669 ft 116 kts 242°
2026-05-05 01:36 33.39999 -118.43548 2064 ft 108 kts 242°
2026-05-05 01:37 33.39791 -118.44495 2067 ft 137 kts 292°
2026-05-05 01:37 33.40677 -118.44922 2156 ft 152 kts
2026-05-05 01:37 33.41491 -118.44144 2265 ft 158 kts 62°
2026-05-05 01:37 33.41966 -118.42950 2227 ft 160 kts 67°
2026-05-05 01:38 33.42351 -118.41732 2238 ft 155 kts 74°
2026-05-05 01:38 33.42232 -118.40527 2186 ft 152 kts 135°
2026-05-05 01:38 33.41323 -118.40012 2045 ft 142 kts 181°
2026-05-05 01:38 33.40830 -118.40868 1800 ft 147 kts 259°
2026-05-05 01:39 33.40399 -118.41746 1585 ft 90 kts 234°
2026-05-05 01:39 33.40250 -118.41997 1603 ft 10 kts 150°
2026-05-05 01:39 33.40271 -118.41896 1596 ft 19 kts 54°
2026-05-05 01:39 33.40369 -118.41728 1585 ft 22 kts 55°
2026-05-05 01:40 33.40351 -118.41639 1586 ft 11 kts 117°
2026-05-05 01:40 33.40317 -118.41573 1589 ft 0 kts 81°
2026-05-05 01:47 33.40317 -118.41574 1589 ft 0 kts 80°
2026-05-05 01:54 33.40317 -118.41575 1598 ft 0 kts 79°